Time;durP1;ratioP1;P1;durP2;ratioP2;P2;SDS_P1;SDS_P2;PMS_P1;PMS_P2;Temp;Humidity;BMP_temperature;BMP_pressure;BME280_temperature;BME280_humidity;BME280_pressure;Samples;Min_cycle;Max_cycle;Signal;HPM_P1;HPM_P2
2023/10/21 00:01:20;;;;;;;6.38;3.33;;;;;;;;;;5033955;28;20201;-46
2023/10/21 00:03:47;;;;;;;4.78;2.88;;;;;;;;;;5033729;28;20232;-48
2023/10/21 00:06:15;;;;;;;4.38;2.80;;;;;;;;;;5033718;28;20205;-46
2023/10/21 00:08:42;;;;;;;3.88;2.67;;;;;;;;;;5033550;28;20197;-49
2023/10/21 00:11:11;;;;;;;5.18;3.17;;;;;;;;;;5033428;28;20300;-50
2023/10/21 00:13:39;;;;;;;5.70;3.17;;;;;;;;;;5033640;28;20204;-47
2023/10/21 00:16:06;;;;;;;6.63;2.88;;;;;;;;;;5033613;28;20201;-45
2023/10/21 00:18:33;;;;;;;5.80;3.30;;;;;;;;;;5033507;28;20201;-46
2023/10/21 00:21:00;;;;;;;6.15;3.15;;;;;;;;;;5033390;28;20661;-47
2023/10/21 00:23:29;;;;;;;6.13;3.20;;;;;;;;;;5033261;28;20196;-45
2023/10/21 00:26:00;;;;;;;7.93;3.55;;;;;;;;;;5033597;28;20297;-45
2023/10/21 00:28:28;;;;;;;5.30;3.05;;;;;;;;;;5033118;28;20569;-45
2023/10/21 00:30:55;;;;;;;6.18;3.33;;;;;;;;;;5015546;28;20200;-50
2023/10/21 00:33:22;;;;;;;4.82;3.60;;;;;;;;;;5015536;28;20201;-47
2023/10/21 00:35:49;;;;;;;5.22;3.40;;;;;;;;;;5015416;28;20295;-47
2023/10/21 00:38:17;;;;;;;4.97;3.17;;;;;;;;;;5015464;28;20212;-47
2023/10/21 00:40:51;;;;;;;8.45;3.25;;;;;;;;;;5033244;28;20201;-45
2023/10/21 00:43:51;;;;;;;7.03;3.28;;;;;;;;;;5032825;28;20448;-46
2023/10/21 00:46:18;;;;;;;7.50;3.20;;;;;;;;;;4952102;29;20203;-46
2023/10/21 00:48:47;;;;;;;5.30;3.33;;;;;;;;;;4952216;29;20211;-50
2023/10/21 00:51:15;;;;;;;4.35;2.80;;;;;;;;;;4952277;29;20208;-49
2023/10/21 00:53:43;;;;;;;10.05;3.20;;;;;;;;;;4952125;29;20226;-51
2023/10/21 00:56:10;;;;;;;7.30;3.47;;;;;;;;;;4936224;29;20203;-50
2023/10/21 00:58:40;;;;;;;7.22;3.05;;;;;;;;;;4935940;29;20222;-50
2023/10/21 01:01:08;;;;;;;5.63;3.60;;;;;;;;;;4936476;29;20219;-46
2023/10/21 01:03:37;;;;;;;4.68;2.90;;;;;;;;;;4951784;29;20270;-50
2023/10/21 01:06:04;;;;;;;7.50;3.63;;;;;;;;;;4951978;29;20234;-46
2023/10/21 01:08:39;;;;;;;4.82;3.10;;;;;;;;;;4951826;29;20218;-46
2023/10/21 01:11:08;;;;;;;5.07;3.45;;;;;;;;;;4951976;29;20277;-50
2023/10/21 01:13:35;;;;;;;6.15;3.45;;;;;;;;;;4951742;29;20207;-46
2023/10/21 01:16:03;;;;;;;3.95;2.78;;;;;;;;;;4951770;29;20731;-47
2023/10/21 01:18:33;;;;;;;5.07;3.15;;;;;;;;;;4951807;29;20204;-51
2023/10/21 01:21:02;;;;;;;6.60;3.60;;;;;;;;;;4959267;28;20263;-49
2023/10/21 01:23:31;;;;;;;5.13;3.67;;;;;;;;;;5032224;28;20227;-48
2023/10/21 01:25:59;;;;;;;4.90;3.28;;;;;;;;;;5014462;28;20282;-48
2023/10/21 01:28:28;;;;;;;4.82;3.58;;;;;;;;;;5032155;28;20255;-48
2023/10/21 01:30:56;;;;;;;5.53;3.75;;;;;;;;;;5032260;28;20270;-46
2023/10/21 01:33:23;;;;;;;8.43;3.72;;;;;;;;;;5014534;28;20217;-47
2023/10/21 01:35:51;;;;;;;6.57;3.38;;;;;;;;;;5032083;28;20736;-51
2023/10/21 01:38:19;;;;;;;7.20;3.70;;;;;;;;;;5014568;28;20205;-48
2023/10/21 01:40:49;;;;;;;6.78;2.92;;;;;;;;;;5014545;28;20205;-49
2023/10/21 01:43:17;;;;;;;4.80;3.47;;;;;;;;;;5031748;28;20572;-49
2023/10/21 01:45:44;;;;;;;5.35;3.35;;;;;;;;;;5031752;28;20586;-46
2023/10/21 01:48:11;;;;;;;5.35;3.45;;;;;;;;;;5031944;28;20338;-50
2023/10/21 01:50:38;;;;;;;4.35;3.20;;;;;;;;;;5031166;28;20689;-49
2023/10/21 01:53:07;;;;;;;4.63;3.38;;;;;;;;;;5014142;28;20208;-46
2023/10/21 01:55:34;;;;;;;5.75;3.60;;;;;;;;;;5014523;28;20223;-46
2023/10/21 01:58:01;;;;;;;5.35;3.35;;;;;;;;;;5014093;28;20205;-50
2023/10/21 02:00:28;;;;;;;5.30;3.28;;;;;;;;;;5014010;28;20201;-46
2023/10/21 02:02:56;;;;;;;4.38;2.97;;;;;;;;;;5031658;28;20208;-46
2023/10/21 02:05:25;;;;;;;6.63;3.35;;;;;;;;;;5014051;28;20282;-49
2023/10/21 02:07:52;;;;;;;9.85;3.50;;;;;;;;;;5013921;28;20764;-49
2023/10/21 02:10:20;;;;;;;12.07;3.63;;;;;;;;;;5031543;28;20661;-50
2023/10/21 02:12:48;;;;;;;4.75;3.08;;;;;;;;;;5031676;28;20563;-50
2023/10/21 02:15:15;;;;;;;4.65;3.67;;;;;;;;;;5013936;28;20209;-52
2023/10/21 02:17:44;;;;;;;6.13;3.47;;;;;;;;;;5031584;28;20205;-50
2023/10/21 02:20:14;;;;;;;7.20;3.58;;;;;;;;;;5031511;28;20216;-46
2023/10/21 02:22:42;;;;;;;7.97;3.88;;;;;;;;;;5031648;28;20287;-48
2023/10/21 02:25:13;;;;;;;4.82;3.75;;;;;;;;;;5031140;28;20332;-49
2023/10/21 02:27:42;;;;;;;4.93;3.33;;;;;;;;;;5013631;28;20236;-50
2023/10/21 02:30:14;;;;;;;6.15;4.00;;;;;;;;;;5031226;28;20212;-49
2023/10/21 02:32:47;;;;;;;7.28;3.80;;;;;;;;;;5013259;28;20814;-48
2023/10/21 02:35:14;;;;;;;5.30;3.67;;;;;;;;;;5031138;28;20215;-47
2023/10/21 02:37:42;;;;;;;8.27;4.18;;;;;;;;;;5031693;28;20205;-45
2023/10/21 02:40:15;;;;;;;5.10;3.65;;;;;;;;;;5031244;28;20200;-48
2023/10/21 02:42:47;;;;;;;10.52;3.75;;;;;;;;;;5013817;28;20200;-47
2023/10/21 02:45:14;;;;;;;5.65;3.85;;;;;;;;;;5031520;28;20677;-45
2023/10/21 02:47:41;;;;;;;7.45;3.72;;;;;;;;;;5031137;28;20665;-46
2023/10/21 02:50:09;;;;;;;5.97;4.22;;;;;;;;;;5031064;28;20208;-47
2023/10/21 02:52:39;;;;;;;5.78;3.95;;;;;;;;;;5031203;28;20800;-47
2023/10/21 02:55:06;;;;;;;5.72;3.92;;;;;;;;;;5013661;28;20532;-46
2023/10/21 02:57:34;;;;;;;9.38;4.18;;;;;;;;;;5031176;28;20341;-46
2023/10/21 03:00:04;;;;;;;6.75;3.95;;;;;;;;;;5013378;28;20647;-51
2023/10/21 03:02:33;;;;;;;10.73;4.35;;;;;;;;;;5034853;28;20204;-45
2023/10/21 03:05:00;;;;;;;10.73;4.88;;;;;;;;;;5034875;28;20248;-48
2023/10/21 03:07:27;;;;;;;7.10;4.47;;;;;;;;;;5016596;28;20589;-46
2023/10/21 03:09:54;;;;;;;6.55;4.10;;;;;;;;;;5033211;28;20216;-46
2023/10/21 03:12:22;;;;;;;5.88;4.10;;;;;;;;;;5033191;28;20231;-46
2023/10/21 03:14:49;;;;;;;9.32;4.78;;;;;;;;;;5033241;28;20223;-49
2023/10/21 03:17:16;;;;;;;7.28;4.60;;;;;;;;;;5033103;28;20251;-49
2023/10/21 03:19:43;;;;;;;6.65;4.05;;;;;;;;;;5033048;28;20543;-49
2023/10/21 03:22:11;;;;;;;8.00;4.15;;;;;;;;;;5015711;28;20211;-46
2023/10/21 03:24:38;;;;;;;8.90;4.75;;;;;;;;;;5033944;28;20224;-46
2023/10/21 03:27:06;;;;;;;6.35;4.43;;;;;;;;;;5034130;28;20239;-46
2023/10/21 03:29:33;;;;;;;7.47;4.40;;;;;;;;;;5034560;28;20209;-48
2023/10/21 03:32:01;;;;;;;9.57;4.70;;;;;;;;;;5034228;28;20564;-46
2023/10/21 03:34:28;;;;;;;8.07;4.75;;;;;;;;;;5034367;28;20205;-47
2023/10/21 03:36:55;;;;;;;5.82;4.20;;;;;;;;;;5034143;28;20669;-45
2023/10/21 03:39:22;;;;;;;7.35;4.75;;;;;;;;;;5034059;28;20200;-48
2023/10/21 03:41:50;;;;;;;6.32;4.45;;;;;;;;;;5034478;28;20244;-46
2023/10/21 03:44:17;;;;;;;7.85;4.18;;;;;;;;;;5034301;28;20611;-46
2023/10/21 03:46:45;;;;;;;7.75;4.57;;;;;;;;;;5034055;28;20568;-49
2023/10/21 03:49:12;;;;;;;7.00;4.65;;;;;;;;;;5016660;28;20204;-48
2023/10/21 03:51:40;;;;;;;8.18;4.75;;;;;;;;;;5033944;28;20215;-46
2023/10/21 03:54:07;;;;;;;8.23;4.60;;;;;;;;;;5033984;28;20625;-45
2023/10/21 03:56:34;;;;;;;8.23;4.53;;;;;;;;;;5033943;28;20259;-48
2023/10/21 03:59:01;;;;;;;6.93;4.50;;;;;;;;;;5033763;28;20217;-46
2023/10/21 04:01:30;;;;;;;8.40;4.45;;;;;;;;;;5033748;28;20259;-47
2023/10/21 04:03:57;;;;;;;7.32;4.80;;;;;;;;;;5033618;28;20292;-46
2023/10/21 04:06:25;;;;;;;11.32;4.72;;;;;;;;;;5034094;28;20795;-48
2023/10/21 04:08:52;;;;;;;14.85;5.15;;;;;;;;;;5033785;28;20212;-47
2023/10/21 04:11:21;;;;;;;7.93;4.70;;;;;;;;;;5033979;28;20208;-46
2023/10/21 04:13:48;;;;;;;8.32;5.22;;;;;;;;;;5032807;28;20681;-49
2023/10/21 04:16:15;;;;;;;7.97;4.85;;;;;;;;;;5033445;28;20212;-50
2023/10/21 04:18:42;;;;;;;8.50;5.28;;;;;;;;;;5033441;28;20282;-47
2023/10/21 04:21:10;;;;;;;8.23;4.93;;;;;;;;;;5033347;28;20204;-47
2023/10/21 04:23:37;;;;;;;8.85;5.85;;;;;;;;;;5033511;28;20205;-45
2023/10/21 04:26:05;;;;;;;7.22;4.55;;;;;;;;;;5033227;28;20592;-46
2023/10/21 04:28:32;;;;;;;7.50;4.68;;;;;;;;;;5033283;28;20784;-52
2023/10/21 04:31:00;;;;;;;6.97;5.10;;;;;;;;;;5033254;28;20215;-46
2023/10/21 04:33:27;;;;;;;8.30;5.55;;;;;;;;;;5033364;28;20527;-45
2023/10/21 04:35:56;;;;;;;12.07;5.95;;;;;;;;;;5033269;28;20212;-50
2023/10/21 04:38:23;;;;;;;6.63;4.82;;;;;;;;;;5033137;28;20201;-49
2023/10/21 04:40:50;;;;;;;7.90;4.75;;;;;;;;;;5033118;28;20201;-47
2023/10/21 04:43:17;;;;;;;7.35;5.28;;;;;;;;;;5032886;28;20200;-47
2023/10/21 04:45:44;;;;;;;9.15;5.50;;;;;;;;;;5032771;28;20228;-47
2023/10/21 04:48:11;;;;;;;9.52;4.80;;;;;;;;;;5032585;28;20254;-45
2023/10/21 04:50:39;;;;;;;9.27;5.75;;;;;;;;;;5032934;28;20212;-46
2023/10/21 04:53:06;;;;;;;6.30;4.90;;;;;;;;;;5032798;28;20239;-46
2023/10/21 04:55:34;;;;;;;7.05;5.25;;;;;;;;;;5032682;28;20204;-46
2023/10/21 04:58:01;;;;;;;8.05;5.13;;;;;;;;;;5015181;28;20231;-47
2023/10/21 05:00:28;;;;;;;9.88;5.43;;;;;;;;;;5032488;28;20653;-47
2023/10/21 05:02:56;;;;;;;8.98;5.57;;;;;;;;;;5032457;28;20288;-48
2023/10/21 05:05:24;;;;;;;8.35;4.93;;;;;;;;;;5032211;28;20236;-46
2023/10/21 05:07:51;;;;;;;6.32;4.50;;;;;;;;;;5032470;28;20258;-47
2023/10/21 05:10:19;;;;;;;6.50;4.55;;;;;;;;;;5032288;28;20605;-49
2023/10/21 05:12:45;;;;;;;8.43;5.18;;;;;;;;;;5032318;28;20204;-45
2023/10/21 05:15:13;;;;;;;11.65;6.10;;;;;;;;;;5032070;28;20208;-47
2023/10/21 05:17:40;;;;;;;9.15;5.45;;;;;;;;;;5032341;28;20203;-46
2023/10/21 05:20:08;;;;;;;8.55;5.25;;;;;;;;;;4997286;28;20255;-47
2023/10/21 05:22:35;;;;;;;7.97;5.32;;;;;;;;;;5032531;28;20287;-48
2023/10/21 05:25:03;;;;;;;11.25;5.90;;;;;;;;;;5031134;28;20271;-45
2023/10/21 05:27:30;;;;;;;15.63;5.75;;;;;;;;;;5032138;28;20588;-49
2023/10/21 05:29:58;;;;;;;8.77;5.28;;;;;;;;;;5032115;28;20208;-46
2023/10/21 05:32:25;;;;;;;7.53;4.97;;;;;;;;;;5031715;28;20569;-53
2023/10/21 05:34:52;;;;;;;7.72;5.13;;;;;;;;;;5031805;28;20669;-53
2023/10/21 05:37:19;;;;;;;7.47;5.20;;;;;;;;;;5031840;28;20204;-49
2023/10/21 05:39:47;;;;;;;8.00;5.13;;;;;;;;;;5032033;28;20208;-48
2023/10/21 05:42:14;;;;;;;6.72;4.88;;;;;;;;;;5031770;28;20224;-48
2023/10/21 05:44:41;;;;;;;7.38;5.00;;;;;;;;;;5031685;28;20662;-46
2023/10/21 05:47:15;;;;;;;7.43;4.90;;;;;;;;;;5032123;28;20275;-46
2023/10/21 05:49:43;;;;;;;9.90;5.88;;;;;;;;;;5031874;28;20671;-48
2023/10/21 05:52:10;;;;;;;9.38;5.07;;;;;;;;;;5031823;28;20212;-46
2023/10/21 05:54:37;;;;;;;9.55;5.65;;;;;;;;;;5031603;28;20204;-49
2023/10/21 05:57:05;;;;;;;7.47;5.38;;;;;;;;;;5031951;28;20212;-47
2023/10/21 05:59:32;;;;;;;8.57;5.78;;;;;;;;;;5031930;28;20200;-47
2023/10/21 06:02:00;;;;;;;19.52;4.90;;;;;;;;;;5031975;28;20201;-50
2023/10/21 06:04:27;;;;;;;9.68;5.38;;;;;;;;;;5031656;28;20196;-46
2023/10/21 06:06:54;;;;;;;7.72;5.18;;;;;;;;;;5025943;28;20225;-49
2023/10/21 06:09:24;;;;;;;5.88;4.63;;;;;;;;;;5022710;28;20223;-46
2023/10/21 06:11:52;;;;;;;8.82;5.50;;;;;;;;;;5022414;28;20192;-48
2023/10/21 06:14:20;;;;;;;9.95;5.45;;;;;;;;;;5019778;28;20201;-46
2023/10/21 06:16:47;;;;;;;6.53;5.15;;;;;;;;;;5022363;28;20200;-46
2023/10/21 06:19:16;;;;;;;9.13;5.50;;;;;;;;;;5018989;28;20201;-46
2023/10/21 06:21:43;;;;;;;10.05;5.28;;;;;;;;;;5027204;28;20612;-46
2023/10/21 06:24:10;;;;;;;8.45;5.32;;;;;;;;;;5031535;28;20204;-47
2023/10/21 06:26:38;;;;;;;9.70;5.63;;;;;;;;;;5031390;28;20221;-50
2023/10/21 06:29:05;;;;;;;8.13;5.30;;;;;;;;;;5031381;28;20375;-47
2023/10/21 06:31:32;;;;;;;8.38;5.22;;;;;;;;;;5031483;28;20199;-46
2023/10/21 06:34:00;;;;;;;8.95;5.45;;;;;;;;;;5031163;28;20833;-51
2023/10/21 06:36:27;;;;;;;8.40;5.22;;;;;;;;;;5033194;28;20258;-46
2023/10/21 06:38:54;;;;;;;8.15;5.63;;;;;;;;;;5035667;28;20205;-48
2023/10/21 06:41:22;;;;;;;7.60;5.00;;;;;;;;;;5002105;28;20222;-46
2023/10/21 06:43:51;;;;;;;10.43;5.97;;;;;;;;;;5002932;28;20244;-52
2023/10/21 06:46:19;;;;;;;8.60;5.43;;;;;;;;;;5014204;28;20232;-49
2023/10/21 06:48:47;;;;;;;7.57;5.30;;;;;;;;;;4964167;28;20221;-47
2023/10/21 06:51:14;;;;;;;9.55;5.65;;;;;;;;;;5014030;28;20613;-46
2023/10/21 06:53:42;;;;;;;8.50;5.75;;;;;;;;;;5014770;28;20229;-47
2023/10/21 06:56:10;;;;;;;8.63;5.78;;;;;;;;;;5013886;28;20261;-45
2023/10/21 06:58:40;;;;;;;9.77;5.97;;;;;;;;;;5014568;28;20233;-49
2023/10/21 07:01:08;;;;;;;8.55;5.00;;;;;;;;;;5013888;28;20569;-47
2023/10/21 07:03:36;;;;;;;9.48;5.93;;;;;;;;;;5014508;28;20225;-45
2023/10/21 07:06:03;;;;;;;7.57;5.22;;;;;;;;;;5013790;28;20232;-51
2023/10/21 07:08:31;;;;;;;10.73;5.40;;;;;;;;;;5013753;28;20575;-46
2023/10/21 07:10:58;;;;;;;7.93;5.40;;;;;;;;;;5013524;28;20228;-46
2023/10/21 07:13:25;;;;;;;7.47;5.25;;;;;;;;;;5014381;28;20225;-46
2023/10/21 07:15:52;;;;;;;7.88;5.10;;;;;;;;;;5014164;28;20227;-48
2023/10/21 07:18:20;;;;;;;9.75;5.72;;;;;;;;;;5014030;28;20255;-58
2023/10/21 07:20:47;;;;;;;11.27;5.70;;;;;;;;;;5013692;28;20720;-47
2023/10/21 07:23:14;;;;;;;8.35;5.18;;;;;;;;;;5014097;28;20260;-50
2023/10/21 07:25:42;;;;;;;9.85;5.47;;;;;;;;;;5013643;28;20225;-46
2023/10/21 07:28:10;;;;;;;8.15;5.53;;;;;;;;;;5013279;28;20237;-50
2023/10/21 07:30:37;;;;;;;8.30;5.28;;;;;;;;;;5016838;28;20216;-48
2023/10/21 07:33:05;;;;;;;8.02;5.45;;;;;;;;;;5023932;28;20221;-50
2023/10/21 07:35:32;;;;;;;8.95;5.13;;;;;;;;;;5025880;28;20220;-46
2023/10/21 07:37:59;;;;;;;8.73;5.30;;;;;;;;;;5021948;28;20224;-50
2023/10/21 07:40:29;;;;;;;7.93;5.43;;;;;;;;;;5023022;28;20212;-50
2023/10/21 07:42:58;;;;;;;9.20;5.20;;;;;;;;;;5021727;28;20233;-50
2023/10/21 07:45:25;;;;;;;9.00;6.47;;;;;;;;;;5023577;28;20307;-46
2023/10/21 07:47:53;;;;;;;9.05;5.20;;;;;;;;;;5022046;28;20286;-52
2023/10/21 07:50:20;;;;;;;8.20;5.22;;;;;;;;;;5024463;28;20241;-50
2023/10/21 07:52:48;;;;;;;9.13;4.95;;;;;;;;;;5022724;28;20229;-50
2023/10/21 07:55:15;;;;;;;7.63;5.30;;;;;;;;;;5020682;28;20221;-46
2023/10/21 07:57:42;;;;;;;8.77;5.50;;;;;;;;;;5018973;28;20225;-45
2023/10/21 08:00:13;;;;;;;8.48;5.65;;;;;;;;;;5024084;28;20264;-46
2023/10/21 08:02:42;;;;;;;9.07;5.65;;;;;;;;;;5019478;28;20575;-54
2023/10/21 08:05:10;;;;;;;10.57;5.85;;;;;;;;;;5022376;28;20647;-49
2023/10/21 08:07:37;;;;;;;9.63;5.63;;;;;;;;;;5020949;28;20241;-49
2023/10/21 08:10:05;;;;;;;9.35;5.53;;;;;;;;;;5023065;28;20217;-45
2023/10/21 08:12:33;;;;;;;8.93;5.82;;;;;;;;;;5021958;28;20213;-48
2023/10/21 08:15:07;;;;;;;7.63;5.50;;;;;;;;;;5023221;28;20586;-51
2023/10/21 08:17:36;;;;;;;8.70;5.22;;;;;;;;;;5023867;28;20216;-46
2023/10/21 08:20:03;;;;;;;8.00;5.63;;;;;;;;;;5018564;28;20308;-46
2023/10/21 08:22:32;;;;;;;6.80;4.93;;;;;;;;;;5021336;28;20217;-50
2023/10/21 08:25:00;;;;;;;7.97;5.75;;;;;;;;;;5020031;28;20214;-52
2023/10/21 08:27:27;;;;;;;10.10;5.90;;;;;;;;;;5031027;28;20628;-46
2023/10/21 08:29:58;;;;;;;9.30;5.72;;;;;;;;;;5032360;28;20224;-48
2023/10/21 08:32:26;;;;;;;7.78;5.45;;;;;;;;;;5033054;28;20225;-46
2023/10/21 08:34:53;;;;;;;7.75;5.05;;;;;;;;;;5032272;28;20227;-50
2023/10/21 08:37:20;;;;;;;8.63;5.20;;;;;;;;;;5022463;28;20222;-50
2023/10/21 08:39:50;;;;;;;7.72;5.43;;;;;;;;;;5015805;28;20226;-46
2023/10/21 08:42:18;;;;;;;8.95;5.18;;;;;;;;;;4997667;28;20221;-46
2023/10/21 08:44:47;;;;;;;7.63;5.05;;;;;;;;;;5016661;28;20228;-48
2023/10/21 08:47:16;;;;;;;11.20;5.60;;;;;;;;;;5025626;28;20251;-46
2023/10/21 08:49:45;;;;;;;9.88;5.72;;;;;;;;;;5011917;28;20706;-45
2023/10/21 08:52:13;;;;;;;10.05;6.28;;;;;;;;;;5024753;28;20450;-46
2023/10/21 08:54:41;;;;;;;8.13;5.75;;;;;;;;;;5020277;28;20728;-51
2023/10/21 08:57:09;;;;;;;10.82;5.97;;;;;;;;;;5007789;28;20217;-50
2023/10/21 08:59:36;;;;;;;12.57;5.65;;;;;;;;;;5011375;28;20576;-53
2023/10/21 09:02:04;;;;;;;9.10;5.78;;;;;;;;;;5010989;28;20785;-46
2023/10/21 09:04:32;;;;;;;8.27;5.78;;;;;;;;;;5022467;28;20699;-46
2023/10/21 09:07:00;;;;;;;8.82;5.85;;;;;;;;;;5020453;28;20224;-46
2023/10/21 09:09:28;;;;;;;10.70;5.95;;;;;;;;;;5019163;28;20227;-46
2023/10/21 09:12:10;;;;;;;8.60;5.70;;;;;;;;;;5020990;28;20216;-52
2023/10/21 09:14:59;;;;;;;7.70;5.95;;;;;;;;;;5018148;28;20239;-48
2023/10/21 09:17:47;;;;;;;9.60;5.75;;;;;;;;;;5017599;28;20279;-46
2023/10/21 09:20:16;;;;;;;9.45;6.10;;;;;;;;;;5027845;28;20221;-45
2023/10/21 09:22:45;;;;;;;13.30;6.90;;;;;;;;;;5021026;28;20220;-47
2023/10/21 09:25:23;;;;;;;8.10;6.15;;;;;;;;;;5027003;28;20229;-46
2023/10/21 09:27:58;;;;;;;9.45;6.18;;;;;;;;;;5016639;28;20245;-46
2023/10/21 09:30:27;;;;;;;10.07;6.45;;;;;;;;;;5017939;28;20243;-46
2023/10/21 09:33:03;;;;;;;10.40;7.25;;;;;;;;;;5022894;28;20573;-47
2023/10/21 09:35:31;;;;;;;10.68;6.10;;;;;;;;;;5020994;28;20224;-45
2023/10/21 09:38:15;;;;;;;10.25;6.75;;;;;;;;;;5020441;28;20227;-55
2023/10/21 09:40:43;;;;;;;13.77;8.00;;;;;;;;;;5017590;28;20562;-46
2023/10/21 09:43:13;;;;;;;9.75;6.55;;;;;;;;;;5020855;28;20274;-48
2023/10/21 09:45:44;;;;;;;9.05;6.35;;;;;;;;;;5019992;28;20312;-46
2023/10/21 09:48:12;;;;;;;11.00;6.60;;;;;;;;;;5020677;28;20237;-49
2023/10/21 09:50:47;;;;;;;10.57;7.20;;;;;;;;;;5014525;28;20717;-47
2023/10/21 09:53:16;;;;;;;9.68;6.72;;;;;;;;;;5017880;28;20229;-50
2023/10/21 09:55:43;;;;;;;10.45;6.97;;;;;;;;;;5020917;28;20216;-45
2023/10/21 09:58:12;;;;;;;10.07;6.30;;;;;;;;;;4994294;28;20276;-45
2023/10/21 10:00:40;;;;;;;9.15;6.22;;;;;;;;;;5019218;28;20844;-49
2023/10/21 10:03:07;;;;;;;7.55;5.63;;;;;;;;;;5019771;28;20227;-48
2023/10/21 10:05:37;;;;;;;9.73;6.28;;;;;;;;;;5012281;28;20282;-47
2023/10/21 10:08:05;;;;;;;8.35;5.63;;;;;;;;;;5008562;28;20279;-46
2023/10/21 10:10:34;;;;;;;11.15;6.03;;;;;;;;;;5020910;28;20217;-49
2023/10/21 10:13:11;;;;;;;7.50;5.25;;;;;;;;;;5018067;28;20229;-50
2023/10/21 10:15:40;;;;;;;8.15;5.70;;;;;;;;;;5021749;28;20315;-46
2023/10/21 10:18:13;;;;;;;8.27;6.10;;;;;;;;;;5022834;28;20213;-46
2023/10/21 10:20:45;;;;;;;11.10;5.22;;;;;;;;;;5009593;28;20232;-45
2023/10/21 10:23:12;;;;;;;6.97;5.57;;;;;;;;;;5010132;28;20229;-45
2023/10/21 10:25:47;;;;;;;7.40;4.63;;;;;;;;;;5004989;28;20226;-45
2023/10/21 10:28:19;;;;;;;9.77;5.63;;;;;;;;;;5000038;28;20607;-45
2023/10/21 10:30:49;;;;;;;7.68;5.10;;;;;;;;;;5010914;28;20252;-48
2023/10/21 10:33:21;;;;;;;9.68;5.63;;;;;;;;;;5017178;28;20233;-46
2023/10/21 10:36:00;;;;;;;9.48;5.50;;;;;;;;;;5010835;28;20457;-47
2023/10/21 10:38:34;;;;;;;7.97;5.32;;;;;;;;;;5010301;28;20248;-47
2023/10/21 10:41:06;;;;;;;8.88;6.05;;;;;;;;;;5010580;28;20244;-47
2023/10/21 10:43:35;;;;;;;11.43;5.88;;;;;;;;;;5010660;28;20312;-47
2023/10/21 10:46:02;;;;;;;9.50;5.65;;;;;;;;;;5010869;28;20231;-47
2023/10/21 10:48:30;;;;;;;9.38;5.47;;;;;;;;;;5013595;28;20240;-46
2023/10/21 10:51:01;;;;;;;10.75;5.90;;;;;;;;;;5021815;28;20573;-48
2023/10/21 10:53:29;;;;;;;10.93;6.05;;;;;;;;;;5022157;28;20217;-46
2023/10/21 10:55:57;;;;;;;8.77;6.25;;;;;;;;;;5001884;28;20660;-45
2023/10/21 10:58:27;;;;;;;8.98;6.00;;;;;;;;;;4997584;28;20217;-46
2023/10/21 11:00:54;;;;;;;14.60;7.55;;;;;;;;;;5010364;28;20225;-50
2023/10/21 11:03:27;;;;;;;10.73;6.63;;;;;;;;;;5017786;28;20219;-51
2023/10/21 11:05:57;;;;;;;15.60;9.38;;;;;;;;;;5014500;28;20248;-51
2023/10/21 11:08:26;;;;;;;13.20;7.97;;;;;;;;;;5009038;28;20237;-46
2023/10/21 11:11:03;;;;;;;97.95;47.92;;;;;;;;;;4992151;28;20221;-47
2023/10/21 11:13:32;;;;;;;111.72;51.05;;;;;;;;;;5015056;28;20236;-47
2023/10/21 11:16:00;;;;;;;83.10;37.65;;;;;;;;;;5009836;28;20226;-51
2023/10/21 11:18:28;;;;;;;41.20;19.45;;;;;;;;;;4993008;28;20224;-47
2023/10/21 11:20:57;;;;;;;15.32;7.75;;;;;;;;;;5009189;28;20713;-52
2023/10/21 11:23:24;;;;;;;16.88;9.48;;;;;;;;;;5011988;28;20221;-48
2023/10/21 11:25:54;;;;;;;14.90;8.90;;;;;;;;;;5017230;28;20221;-51
2023/10/21 11:28:21;;;;;;;15.45;7.90;;;;;;;;;;5012548;28;20233;-55
2023/10/21 11:30:49;;;;;;;13.90;7.00;;;;;;;;;;4995894;28;20252;-55
2023/10/21 11:33:17;;;;;;;19.42;9.68;;;;;;;;;;5023656;28;20232;-48
2023/10/21 11:35:45;;;;;;;20.05;10.48;;;;;;;;;;5013871;28;20313;-47
2023/10/21 11:38:17;;;;;;;42.78;21.73;;;;;;;;;;5012883;28;20236;-44
2023/10/21 11:40:45;;;;;;;16.60;10.20;;;;;;;;;;5013349;28;20233;-48
2023/10/21 11:43:14;;;;;;;13.23;7.68;;;;;;;;;;5013643;28;20263;-47
2023/10/21 11:45:41;;;;;;;9.75;7.15;;;;;;;;;;4995965;28;20765;-49
2023/10/21 11:48:09;;;;;;;15.13;7.60;;;;;;;;;;5013013;28;20233;-50
2023/10/21 11:50:38;;;;;;;15.02;7.60;;;;;;;;;;4995850;28;20806;-54
2023/10/21 11:53:06;;;;;;;9.52;6.47;;;;;;;;;;5012382;28;20229;-49
2023/10/21 12:38:40;;;;;;;9.80;7.13;;;;;;;;;;5108929;28;20271;-41
2023/10/21 12:41:25;;;;;;;35.50;16.38;;;;;;;;;;5108469;28;20233;-34
2023/10/21 12:43:58;;;;;;;13.95;8.13;;;;;;;;;;5108767;28;20229;-37
2023/10/21 12:46:28;;;;;;;15.90;9.63;;;;;;;;;;5107825;28;20605;-38
2023/10/21 12:48:57;;;;;;;14.60;8.10;;;;;;;;;;5108468;28;20254;-37
2023/10/21 12:51:41;;;;;;;34.50;19.98;;;;;;;;;;5108292;28;20592;-36
2023/10/21 12:54:11;;;;;;;19.50;11.02;;;;;;;;;;5108767;28;20248;-33
2023/10/21 12:56:41;;;;;;;18.20;11.70;;;;;;;;;;5120718;27;20612;-39
2023/10/21 12:59:08;;;;;;;15.30;9.98;;;;;;;;;;5124847;28;20218;-41
2023/10/21 13:01:38;;;;;;;19.92;10.65;;;;;;;;;;5127045;27;20233;-37
2023/10/21 13:04:06;;;;;;;64.68;23.80;;;;;;;;;;5127854;27;20313;-39
2023/10/21 13:06:34;;;;;;;16.50;10.50;;;;;;;;;;5127206;27;20221;-36
2023/10/21 13:09:19;;;;;;;29.50;14.88;;;;;;;;;;5127946;27;20227;-31
2023/10/21 13:11:50;;;;;;;49.20;25.30;;;;;;;;;;5127426;27;20232;-41
2023/10/21 13:14:29;;;;;;;56.25;30.80;;;;;;;;;;5127763;27;20525;-37
2023/10/21 13:16:57;;;;;;;68.35;37.50;;;;;;;;;;5126636;27;20237;-37
2023/10/21 13:19:24;;;;;;;21.50;12.27;;;;;;;;;;5127629;27;20704;-34
2023/10/21 13:21:55;;;;;;;30.50;15.27;;;;;;;;;;5127242;27;20226;-37
2023/10/21 13:24:22;;;;;;;42.38;17.60;;;;;;;;;;5127458;27;20228;-32
2023/10/21 13:26:49;;;;;;;40.42;16.08;;;;;;;;;;5123546;27;20237;-33
2023/10/21 13:29:16;;;;;;;53.17;21.05;;;;;;;;;;5113794;28;20617;-39
2023/10/21 13:31:43;;;;;;;64.63;26.48;;;;;;;;;;5104547;28;20689;-34
2023/10/21 13:34:10;;;;;;;130.02;63.13;;;;;;;;;;5093123;28;20229;-37
2023/10/21 13:36:38;;;;;;;73.20;38.78;;;;;;;;;;5106520;27;20233;-33
2023/10/21 13:39:23;;;;;;;40.15;22.10;;;;;;;;;;5113470;28;20581;-36
2023/10/21 13:41:51;;;;;;;24.65;13.55;;;;;;;;;;5113383;27;20228;-36
2023/10/21 13:44:18;;;;;;;24.35;14.13;;;;;;;;;;5113372;28;20233;-34
2023/10/21 13:46:46;;;;;;;25.88;12.15;;;;;;;;;;5112706;27;20607;-39
2023/10/21 13:49:15;;;;;;;22.60;11.88;;;;;;;;;;5113107;28;20229;-29
2023/10/21 13:51:43;;;;;;;18.35;11.38;;;;;;;;;;5113362;27;20282;-41
2023/10/21 13:54:12;;;;;;;20.35;11.02;;;;;;;;;;5102068;28;20229;-40
2023/10/21 13:56:40;;;;;;;19.85;11.50;;;;;;;;;;5093817;28;20234;-35
2023/10/21 13:59:12;;;;;;;30.95;16.42;;;;;;;;;;5093290;28;20227;-35
2023/10/21 14:01:43;;;;;;;22.27;12.15;;;;;;;;;;5100743;28;20218;-32
2023/10/21 14:04:12;;;;;;;18.50;11.02;;;;;;;;;;5113657;27;20230;-33
2023/10/21 14:06:40;;;;;;;31.73;14.50;;;;;;;;;;5114064;28;20229;-38
2023/10/21 14:09:14;;;;;;;19.83;11.65;;;;;;;;;;5113852;28;20222;-34
2023/10/21 14:11:42;;;;;;;45.53;19.95;;;;;;;;;;5113834;28;20568;-39
2023/10/21 14:14:10;;;;;;;241.38;76.38;;;;;;;;;;5113217;28;20306;-39
2023/10/21 14:16:37;;;;;;;29.20;14.63;;;;;;;;;;5111990;28;20230;-32
2023/10/21 14:19:08;;;;;;;29.25;15.45;;;;;;;;;;5113452;28;20344;-33
2023/10/21 14:21:35;;;;;;;24.20;14.00;;;;;;;;;;5113867;28;20270;-34
2023/10/21 14:24:03;;;;;;;23.50;12.50;;;;;;;;;;5112738;27;20671;-30
2023/10/21 14:26:32;;;;;;;42.95;18.52;;;;;;;;;;5110466;28;20226;-37
2023/10/21 14:28:59;;;;;;;21.67;11.98;;;;;;;;;;5112716;28;20640;-36
2023/10/21 14:31:30;;;;;;;26.75;12.18;;;;;;;;;;5112355;28;20228;-35
2023/10/21 14:33:58;;;;;;;21.80;11.73;;;;;;;;;;5112706;28;20753;-34
2023/10/21 14:36:25;;;;;;;18.88;11.30;;;;;;;;;;5112385;28;20690;-36
2023/10/21 14:38:52;;;;;;;34.88;17.83;;;;;;;;;;5110061;28;20245;-42
2023/10/21 14:41:20;;;;;;;32.90;17.42;;;;;;;;;;5113478;28;20233;-33
2023/10/21 14:43:47;;;;;;;23.70;12.45;;;;;;;;;;5110218;28;20279;-33
2023/10/21 14:46:14;;;;;;;41.40;19.75;;;;;;;;;;5112850;28;20230;-38
2023/10/21 14:48:41;;;;;;;23.58;13.70;;;;;;;;;;5112961;28;20222;-32
2023/10/21 14:51:08;;;;;;;23.80;13.77;;;;;;;;;;5113160;28;20612;-34
2023/10/21 14:53:35;;;;;;;26.90;15.00;;;;;;;;;;5112611;28;20295;-40
2023/10/21 14:56:03;;;;;;;28.67;15.20;;;;;;;;;;5115264;27;20236;-37
2023/10/21 14:58:30;;;;;;;26.83;13.85;;;;;;;;;;5122254;27;20702;-39
2023/10/21 15:00:58;;;;;;;31.35;17.38;;;;;;;;;;5125217;27;20210;-31
2023/10/21 15:03:25;;;;;;;22.50;13.23;;;;;;;;;;5112313;28;20241;-36
2023/10/21 15:05:52;;;;;;;23.02;13.25;;;;;;;;;;5113042;28;20318;-35
2023/10/21 15:08:23;;;;;;;22.58;13.23;;;;;;;;;;5125241;27;20222;-33
2023/10/21 15:10:52;;;;;;;23.17;14.00;;;;;;;;;;5111973;28;20217;-33
2023/10/21 15:13:23;;;;;;;29.27;16.58;;;;;;;;;;5111220;27;20229;-40
2023/10/21 15:16:01;;;;;;;24.38;13.00;;;;;;;;;;5110857;28;20303;-33
2023/10/21 15:18:30;;;;;;;26.45;14.85;;;;;;;;;;5105617;27;20233;-37
2023/10/21 15:21:08;;;;;;;24.75;15.07;;;;;;;;;;5107405;28;20221;-41
2023/10/21 15:23:36;;;;;;;28.88;17.20;;;;;;;;;;5110122;28;20230;-36
2023/10/21 15:26:13;;;;;;;26.83;16.00;;;;;;;;;;5109116;28;20237;-38
2023/10/21 15:28:40;;;;;;;30.75;16.02;;;;;;;;;;5106806;28;20221;-42